• Join FlightAware (Why Join?)
  • Login
  • US Flag 
02:56AM EDT


 

Airport Tracker/Info


-or-


 

Live Flight TrackerFlight Track Log ✈ DAL6119 ✈ 17-Apr-2013 ✈ KLGA - KMHT

Flight Track Log - Related Links

Times and Time Zones

All times are in EDT time to prevent confusion due to time zone crossing. See the DAL6119 flight status page for this flight to view local times or setup timezone preferences in your user account.

Time Position Orientation Groundspeed Altitude Reporting Facility
EDT Latitude Longitude Course Direction KTS MPH feet Rate Location/Type
10:50PM 40.7500 -73.8167 37° Northeast 172 198 1,900  Level New York TRACON
10:51PM 40.7833 -73.7667 49° Northeast 206 237 4,100 2,280 Climbing New York TRACON
10:53PM 41.1159 -73.5958 28° Northeast  Level FlightAware Approximate
10:54PM 41.2016 -73.5236 33° Northeast  Level FlightAware Approximate
10:54PM 40.9139 -73.6814 26° Northeast 228 262 9,100  Level Boston Center
10:55PM 41.2879 -73.4526 27° Northeast  Level FlightAware Approximate
10:55PM 40.9708 -73.6222 38° Northeast 245 282 11,700  Level Boston Center
10:56PM 41.3685 -73.3982 37° Northeast  Level FlightAware Approximate
10:56PM 41.0400 -73.5711 29° Northeast 251 289 14,100  Level Boston Center
10:57PM 41.1031 -73.5225 30° Northeast 276 318 15,200 1,020 Climbing Boston Center
10:58PM 41.1911 -73.4550 30° Northeast 313 360 16,200 900 Climbing Boston Center
10:59PM 41.2689 -73.3928 31° Northeast 350 403 17,000 360 Climbing Boston Center
11:00PM 41.3736 -73.3142 29° Northeast 377 434 17,000  Level Boston Center
11:01PM 41.4617 -73.2461 30° Northeast 396 456 17,000  Level Boston Center
11:02PM 41.5708 -73.1614 30° Northeast 407 468 17,000  Level Boston Center
11:03PM 41.6567 -73.0931 31° Northeast 407 468 17,000  Level Boston Center
11:04PM 41.7675 -73.0164 27° Northeast 395 455 17,000 -180 Level Boston Center
11:05PM 41.8572 -72.9558 27° Northeast 395 455 16,700 -780 Descending Boston Center
11:06PM 41.9556 -72.8867 28° Northeast 390 449 15,500 -900 Descending Boston Center
11:07PM 42.0558 -72.8175 27° Northeast 390 449 14,900 -300 Descending Boston Center
11:08PM 42.1603 -72.7397 29° Northeast 383 441 15,000  Climbing Boston Center
11:09PM 42.2564 -72.6728 27° Northeast 383 441 15,000 -60 Level Boston Center
11:10PM 42.3544 -72.6058 27° Northeast 383 441 14,900 -60 Descending Boston Center
11:11PM 42.4525 -72.5358 28° Northeast 388 447 14,900  Level Boston Center
11:12PM 42.5483 -72.4683 27° Northeast 388 447 14,900 -180 Level Boston Center
11:13PM 42.6381 -72.3950 31° Northeast 388 447 14,600 -780 Descending Boston Center
11:14PM 42.6817 -72.2764 63° Northeast 343 395 13,400 -1,440 Descending Boston Center
11:15PM 42.7044 -72.1575 75° East 327 376 11,700 -1,800 Descending Boston Center
11:16PM 42.7289 -72.0444 74° East 316 364 9,900 -1,620 Descending Boston Center
11:17PM 42.7389 -71.9369 83° East 301 346 8,500 -1,500 Descending Boston Center
11:18PM 42.7303 -71.8325 96° East 283 326 6,900 -1,740 Descending Boston Center
11:19PM 42.7233 -71.7336 95° East 272 313 5,000 -1,500 Descending Boston Center
11:20PM 42.7164 -71.6403 96° East 261 300 4,000 -480 Descending Boston Center
11:21PM 42.7264 -71.5556 81° East 235 270 4,100 -300 Climbing Boston Center
11:22PM 42.7611 -71.4900 54° Northeast 224 258 3,400 -900 Descending Boston Center
11:23PM 42.7939 -71.4214 57° Northeast 211 243 2,300 -720 Descending Boston Center
11:24PM 42.8289 -71.3786 42° Northeast 189 217 2,000 -300 Descending Boston Center